Songkhla, Thailand
Current Conditions -  °F | °C
As of 11:00 AM on Thursday 27 Nov 2014 (Local Time) from VTSS Reporting Station
Broken Clouds Broken Clouds  
Wind Chill: 84°   Ceiling: 30000
Heat Index: 94°   Visibility: 6mi
Dew Point: 77°   Wind: 9mph
Humidity: 79%   Direction: 30°NNE
Pressure: 29.83"   Gusts: NA
Location:  7.21°N, 100.56°E
Report Text: VTSS 270400Z 03008KT 9999 SCT020 BKN300 29/25 Q1010 A2984 NOSIG
Loading
Personal Weather Stations






























Interactive Weather Map New forecast layout! Learn more

10-Day Weather Forecast

Advertisements
Track Severe Weather on mobile